Latest Weather Observations for Sheoaks

IDV60901

Issued at 12:41 pm EST Monday 6 July 2015 (issued every 10 minutes, with the page automatically refreshed every 10 minutes)

About weather observations | Map of Melbourne area stations | Latest observations for Melbourne area | Other Formats
Station Details ID: 087168 Name: SHEOAKS Lat: -37.91 Lon: 144.13 Height: 236.7 m
Data from the previous 72 hours. | See also: Recent months at Sheoaks
Date/Time
EST
Tmp

°C
App
Tmp
°C
Dew
Point
°C
Rel
Hum
%
Delta-T

°C
Wind Press
QNH
hPa
Press
MSL
hPa
Rain
since
9 am
mm
Dir
 
Spd
km/h
Gust
km/h
Spd
kts
Gust
kts
06/12:30pm 11.1 6.3 4.8 65 2.9 NNW 19 30 10 16 1014.2 1014.6 0.0
06/12:00pm 11.5 6.5 4.7 63 3.1 NNW 20 37 11 20 1014.3 1014.7 0.0
06/11:30am 11.1 6.0 4.3 63 3.1 NNW 20 33 11 18 1014.5 1014.9 0.0
06/11:00am 10.1 4.6 4.0 66 2.7 NNW 22 33 12 18 1014.7 1015.1 0.0
06/10:30am 9.9 4.9 3.6 65 2.8 NNW 19 32 10 17 1015.0 1015.4 0.0
06/10:00am 9.6 4.6 3.4 65 2.7 NNW 19 32 10 17 1014.9 1015.3 0.0
06/09:30am 9.0 3.7 2.8 65 2.7 NNW 20 28 11 15 1014.9 1015.3 0.0
06/09:00am 8.8 3.6 2.6 65 2.7 NNW 19 33 10 18 1014.8 1015.2 0.0
06/08:30am 8.9 3.7 2.5 64 2.7 NNW 19 28 10 15 1014.6 1015.0 0.0
06/08:00am 9.3 3.2 2.6 63 2.9 NNW 24 39 13 21 1014.4 1014.8 0.0
06/07:30am 9.2 3.1 2.8 64 2.8 NNW 24 39 13 21 1014.2 1014.6 0.0
06/07:00am 8.7 3.3 2.5 65 2.6 NNW 20 32 11 17 1014.2 1014.6 0.0
06/06:30am 8.7 2.6 2.5 65 2.6 NNW 24 35 13 19 1014.2 1014.6 0.0
06/06:00am 8.8 2.6 2.4 64 2.7 NNW 24 37 13 20 1014.1 1014.5 0.0
06/05:30am 9.1 3.3 2.4 63 2.9 NNW 22 37 12 20 1014.0 1014.4 0.0
06/05:00am 9.0 2.8 2.3 63 2.9 NNW 24 35 13 19 1014.2 1014.6 0.0
06/04:30am 9.0 2.9 2.6 64 2.7 NNW 24 37 13 20 1014.3 1014.7 0.0
06/04:00am 8.8 3.0 2.4 64 2.7 NNW 22 33 12 18 1014.5 1014.9 0.0
06/03:30am 8.9 2.3 2.3 63 2.8 NNW 26 39 14 21 1014.5 1014.9 0.0
06/03:05am 9.2 2.3 2.3 62 2.9 NNW 28 48 15 26 1014.7 1015.1 0.0
06/03:00am 9.2 1.9 2.3 62 2.9 NNW 30 48 16 26 1014.7 1015.1 0.0
06/02:30am 9.2 2.6 2.3 62 2.9 NNW 26 43 14 23 1015.0 1015.4 0.0
06/02:00am 9.3 2.8 2.4 62 3.0 NNW 26 37 14 20 1015.1 1015.5 0.0
06/01:30am 9.3 3.5 2.4 62 3.0 NNW 22 32 12 17 1015.3 1015.7 0.0
06/01:00am 9.5 3.3 2.4 61 3.0 NNW 24 35 13 19 1015.5 1015.9 0.0
06/12:30am 9.7 4.3 2.3 60 3.2 NNW 20 33 11 18 1015.8 1016.2 0.0
06/12:00am 9.9 4.1 2.5 60 3.2 NNW 22 35 12 19 1016.0 1016.3 0.0
 
Date/Time
EST
Tmp

°C
App
Tmp
°C
Dew
Point
°C
Rel
Hum
%
Delta-T

°C
Wind Press
QNH
hPa
Press
MSL
hPa
Rain
since
9 am
mm
Dir
 
Spd
km/h
Gust
km/h
Spd
kts
Gust
kts
05/11:30pm 10.1 4.9 2.5 59 3.3 NNW 19 32 10 17 1016.2 1016.5 0.0
05/11:00pm 10.1 5.3 2.5 59 3.3 NNW 17 26 9 14 1016.2 1016.5 0.0
05/10:30pm 10.1 5.3 2.5 59 3.3 NNW 17 26 9 14 1016.4 1016.7 0.0
05/10:00pm 10.2 5.1 2.8 60 3.2 NNW 19 30 10 16 1016.5 1016.8 0.0
05/09:30pm 10.1 4.8 2.9 61 3.1 NNW 20 32 11 17 1016.5 1016.8 0.0
05/09:00pm 10.1 5.0 2.9 61 3.1 NNW 19 32 10 17 1016.6 1016.9 0.0
05/08:30pm 10.3 4.6 3.1 61 3.2 NNW 22 39 12 21 1016.7 1017.0 0.0
05/08:00pm 10.2 5.5 3.3 62 3.0 NNW 17 28 9 15 1016.8 1017.1 0.0
05/07:30pm 10.4 5.1 3.2 61 3.2 NNW 20 32 11 17 1016.7 1017.0 0.0
05/07:00pm 10.4 5.1 3.2 61 3.2 NNW 20 28 11 15 1016.7 1017.0 0.0
05/06:30pm 10.4 5.4 3.4 62 3.1 NNW 19 26 10 14 1016.8 1017.1 0.0
05/06:00pm 10.7 5.7 3.7 62 3.1 NNW 19 26 10 14 1016.8 1017.1 0.0
05/05:30pm 11.0 6.0 3.8 61 3.2 NNW 19 32 10 17 1016.6 1016.9 0.0
05/05:00pm 11.6 6.5 3.9 59 3.5 NNW 20 32 11 17 1016.5 1016.8 0.0
05/04:30pm 12.2 7.1 4.2 58 3.7 NNW 20 33 11 18 1016.5 1016.8 0.0
05/04:00pm 12.2 7.3 4.2 58 3.7 NNW 19 33 10 18 1016.5 1016.8 0.0
05/03:30pm 12.6 6.8 4.6 58 3.7 NNW 24 39 13 21 1016.4 1016.7 0.0
05/03:00pm 12.6 6.8 4.6 58 3.7 NNW 24 37 13 20 1016.5 1016.8 0.0
05/02:30pm 12.7 7.7 4.4 57 3.8 NNW 20 35 11 19 1016.7 1017.0 0.0
05/02:00pm 12.9 6.3 4.3 56 4.0 NNW 28 44 15 24 1017.0 1017.3 0.0
05/01:30pm 13.1 6.6 4.8 57 3.9 NNW 28 43 15 23 1017.2 1017.5 0.0
05/01:00pm 12.9 7.1 4.6 57 3.8 NNW 24 41 13 22 1017.5 1017.9 0.0
05/12:30pm 12.7 6.5 4.4 57 3.8 NNW 26 39 14 21 1017.8 1018.2 0.0
05/12:00pm 12.2 6.0 4.2 58 3.7 NNW 26 44 14 24 1018.1 1018.5 0.0
05/11:30am 12.2 6.4 4.2 58 3.7 NNW 24 43 13 23 1018.4 1018.8 0.0
05/11:00am 11.5 4.9 4.0 60 3.4 NNW 28 44 15 24 1018.8 1019.2 0.0
05/10:30am 10.5 3.8 3.5 62 3.1 NNW 28 48 15 26 1018.7 1019.1 0.0
05/10:29am 10.6 3.9 3.6 62 3.1 NNW 28 48 15 26 1018.8 1019.2 0.0
05/10:00am 10.2 3.5 3.5 63 3.0 NNW 28 43 15 23 1018.9 1019.3 0.0
05/09:30am 9.7 3.7 3.4 65 2.8 NNW 24 41 13 22 1019.1 1019.5 0.0
05/09:00am 8.7 2.2 2.9 67 2.5 NNW 26 37 14 20 1018.9 1019.3 0.0
05/08:30am 8.7 2.2 2.9 67 2.5 NNW 26 37 14 20 1018.9 1019.3 0.0
05/08:00am 8.3 2.7 3.2 70 2.2 NNW 22 35 12 19 1018.9 1019.3 0.0
05/07:30am 8.1 3.1 3.4 72 2.0 NNW 19 26 10 14 1019.1 1019.5 0.0
05/07:00am 8.0 2.8 3.3 72 2.0 NNW 20 30 11 16 1019.1 1019.5 0.0
05/06:30am 8.0 3.4 3.5 73 2.0 NNW 17 24 9 13 1019.0 1019.4 0.0
05/06:00am 8.1 2.9 3.6 73 2.0 NNW 20 28 11 15 1018.9 1019.3 0.0
05/05:30am 8.0 3.0 3.7 74 1.9 NNW 19 28 10 15 1018.8 1019.2 0.0
05/05:00am 8.2 3.6 3.9 74 1.9 NNW 17 24 9 13 1018.8 1019.2 0.0
05/04:30am 8.3 3.1 3.8 73 2.0 NNW 20 30 11 16 1018.6 1019.0 0.0
05/04:00am 8.3 3.3 3.8 73 2.0 NNW 19 28 10 15 1018.8 1019.2 0.0
05/03:30am 8.5 3.4 3.9 73 2.0 NNW 20 28 11 15 1019.1 1019.5 0.0
05/03:00am 8.8 3.7 4.2 73 2.0 NNW 20 32 11 17 1019.2 1019.6 0.0
05/02:30am 8.7 4.6 4.3 74 2.0 NNW 15 26 8 14 1019.4 1019.8 0.0
05/02:00am 8.7 4.3 4.5 75 1.9 NNW 17 28 9 15 1019.6 1020.0 0.0
05/01:30am 9.2 4.4 4.8 74 2.0 NNW 19 28 10 15 1019.6 1020.0 0.0
05/01:00am 9.5 5.1 4.5 71 2.2 NNW 17 26 9 14 1019.9 1020.3 0.0
05/12:30am 9.7 5.6 4.5 70 2.3 NNW 15 24 8 13 1020.1 1020.5 0.0
05/12:00am 9.7 5.7 4.7 71 2.3 NNW 15 22 8 12 1020.2 1020.6 0.0
 
Date/Time
EST
Tmp

°C
App
Tmp
°C
Dew
Point
°C
Rel
Hum
%
Delta-T

°C
Wind Press
QNH
hPa
Press
MSL
hPa
Rain
since
9 am
mm
Dir
 
Spd
km/h
Gust
km/h
Spd
kts
Gust
kts
04/11:30pm 9.5 5.8 4.7 72 2.2 NNW 13 24 7 13 1020.5 1020.8 0.0
04/11:00pm 9.6 5.6 5.0 73 2.1 NNW 15 24 8 13 1020.6 1020.9 0.0
04/10:30pm 9.5 5.9 5.1 74 2.0 NNW 13 20 7 11 1020.6 1020.9 0.0
04/10:00pm 9.6 6.0 5.0 73 2.1 NNW 13 22 7 12 1020.8 1021.2 0.0
04/09:30pm 9.7 6.1 5.1 73 2.1 NNW 13 20 7 11 1021.1 1021.5 0.0
04/09:00pm 9.7 6.1 5.1 73 2.1 NNW 13 20 7 11 1020.9 1021.3 0.0
04/08:30pm 9.8 6.2 5.2 73 2.1 NNW 13 22 7 12 1021.0 1021.4 0.0
04/08:00pm 9.7 6.2 5.3 74 2.0 NW 13 19 7 10 1021.1 1021.5 0.0
04/07:30pm 9.6 6.2 5.8 77 1.8 NNW 13 20 7 11 1021.1 1021.5 0.0
04/07:00pm 9.5 6.1 5.7 77 1.8 NNW 13 20 7 11 1021.0 1021.4 0.0
04/06:30pm 9.7 5.5 5.7 76 1.9 NNW 17 26 9 14 1020.8 1021.2 0.0
04/06:00pm 9.4 5.9 5.6 77 1.7 NNW 13 24 7 13 1020.6 1020.9 0.0
04/05:30pm 9.5 5.6 5.5 76 1.8 NW 15 24 8 13 1020.5 1020.8 0.0
04/05:00pm 9.7 5.4 5.1 73 2.1 NNW 17 26 9 14 1020.5 1020.8 0.0
04/04:30pm 9.9 5.1 4.7 70 2.4 NNW 19 26 10 14 1020.6 1020.9 0.0
04/04:00pm 10.3 6.0 5.1 70 2.4 NNW 17 24 9 13 1020.7 1021.0 0.0
04/03:30pm 10.5 6.6 5.5 71 2.3 NW 15 26 8 14 1020.7 1021.0 0.0
04/03:00pm 10.4 5.8 5.4 71 2.3 NW 19 30 10 16 1020.6 1020.9 0.0
04/02:30pm 10.4 6.2 5.6 72 2.2 NW 17 28 9 15 1020.5 1020.8 0.0
04/02:00pm 10.4 5.6 5.4 71 2.3 NW 20 32 11 17 1020.6 1020.9 0.0
04/01:30pm 10.7 6.5 5.7 71 2.3 NW 17 28 9 15 1020.7 1021.0 0.0
04/01:00pm 10.3 6.0 5.1 70 2.4 NW 17 32 9 17 1020.8 1021.2 0.0
04/12:30pm 10.2 6.3 5.2 71 2.3 NW 15 26 8 14 1021.3 1021.7 0.0
04/12:00pm 9.8 5.4 4.8 71 2.3 NW 17 32 9 17 1021.5 1021.9 0.0
04/11:30am 9.6 4.9 5.0 73 2.1 NW 19 32 10 17 1021.9 1022.3 0.0
04/11:00am 9.2 4.2 4.8 74 2.0 NW 20 32 11 17 1022.1 1022.5 0.0
04/10:30am 9.0 4.5 4.4 73 2.1 NW 17 30 9 16 1022.2 1022.6 0.0
04/10:00am 9.1 4.2 4.1 71 2.2 NW 19 32 10 17 1022.1 1022.5 0.0
04/09:30am 8.8 3.8 3.8 71 2.2 NW 19 30 10 16 1021.9 1022.3 0.0
04/09:00am 8.7 3.7 3.5 70 2.3 NW 19 32 10 17 1021.7 1022.1 0.0
04/08:30am 8.2 3.1 3.3 71 2.1 NW 19 28 10 15 1021.6 1022.0 0.0
04/08:00am 7.4 3.0 2.5 71 2.1 NNW 15 22 8 12 1021.6 1022.0 0.0
04/07:30am 7.1 1.3 2.2 71 2.0 NNW 22 33 12 18 1021.4 1021.8 0.0
04/07:00am 7.5 2.1 2.4 70 2.1 NNW 20 32 11 17 1021.2 1021.6 0.0
04/06:30am 7.4 2.5 1.9 68 2.3 NNW 17 32 9 17 1021.0 1021.4 0.0
04/06:00am 7.3 2.0 1.6 67 2.3 NNW 19 28 10 15 1021.2 1021.6 0.0
04/05:30am 7.3 2.3 1.6 67 2.3 NNW 17 26 9 14 1021.3 1021.7 0.0
04/05:00am 7.1 2.1 1.4 67 2.3 NNW 17 22 9 12 1021.2 1021.6 0.0
04/04:30am 7.0 2.0 1.1 66 2.4 NNW 17 26 9 14 1021.3 1021.7 0.0
04/04:00am 7.0 2.4 1.3 67 2.3 NNW 15 28 8 15 1021.5 1021.9 0.0
04/03:30am 7.1 2.1 1.4 67 2.3 NNW 17 24 9 13 1021.5 1021.9 0.0
04/03:00am 7.4 2.8 1.3 65 2.5 NNW 15 22 8 12 1021.8 1022.2 0.0
04/02:30am 7.4 2.4 1.3 65 2.5 NNW 17 22 9 12 1022.1 1022.5 0.0
04/02:00am 7.3 2.6 1.2 65 2.5 NNW 15 24 8 13 1022.5 1022.9 0.0
04/01:30am 7.3 2.6 1.2 65 2.5 NW 15 24 8 13 1022.6 1023.0 0.0
04/01:00am 7.2 2.9 1.1 65 2.5 NNW 13 20 7 11 1022.7 1023.1 0.0
04/12:30am 7.0 1.9 0.9 65 2.5 NNW 17 22 9 12 1023.0 1023.4 0.0
04/12:00am 6.8 2.1 0.9 66 2.4 NNW 15 20 8 11 1023.5 1023.9 0.0
 
Date/Time
EST
Tmp

°C
App
Tmp
°C
Dew
Point
°C
Rel
Hum
%
Delta-T

°C
Wind Press
QNH
hPa
Press
MSL
hPa
Rain
since
9 am
mm
Dir
 
Spd
km/h
Gust
km/h
Spd
kts
Gust
kts
03/11:30pm 6.8 2.5 0.7 65 2.4 NNW 13 20 7 11 1023.7 1024.1 0.0
03/11:00pm 7.0 2.7 0.9 65 2.4 NNW 13 20 7 11 1023.6 1024.0 0.0
03/10:30pm 7.0 2.3 0.9 65 2.5 NNW 15 22 8 12 1023.7 1024.1 0.0
03/10:00pm 6.8 2.5 1.3 68 2.2 NNW 13 22 7 12 1023.9 1024.3 0.0
03/09:30pm 6.6 2.3 1.3 69 2.2 NNW 13 19 7 10 1024.1 1024.5 0.0
03/09:00pm 6.7 3.2 1.4 69 2.1 NNW 9 17 5 9 1024.4 1024.9 0.0
03/08:30pm 6.6 3.1 1.5 70 2.1 NNW 9 15 5 8 1024.6 1025.1 0.0
03/08:00pm 6.5 2.6 1.2 69 2.1 NNW 11 17 6 9 1024.6 1025.1 0.0
03/07:30pm 6.3 2.8 1.2 70 2.1 NNW 9 13 5 7 1024.9 1025.3 0.0
03/07:00pm 6.4 3.2 0.9 68 2.2 NNW 7 9 4 5 1025.1 1025.5 0.0
03/06:30pm 7.0 4.0 0.9 65 2.5 NW 6 9 3 5 1025.2 1025.6 0.0
03/06:00pm 7.3 3.7 0.7 63 2.6 WNW 9 15 5 8 1025.3 1025.7 0.0
03/05:30pm 7.4 4.1 0.4 61 2.8 WNW 7 9 4 5 1025.3 1025.7 0.0
03/05:00pm 7.7 3.6 0.0 58 3.0 WNW 11 19 6 10 1025.3 1025.7 0.0
03/04:30pm 7.9 3.4 -0.3 56 3.2 WNW 13 19 7 10 1025.4 1025.8 0.0
03/04:00pm 8.1 3.7 0.3 58 3.1 WNW 13 20 7 11 1025.6 1026.0 0.0
03/03:30pm 8.3 3.1 0.3 57 3.2 W 17 28 9 15 1025.8 1026.2 0.0
03/03:00pm 8.4 4.0 0.4 57 3.2 W 13 24 7 13 1025.7 1026.1 0.0
03/02:30pm 8.2 3.8 0.4 58 3.1 W 13 19 7 10 1025.7 1026.1 0.0
03/02:00pm 8.4 4.4 0.6 58 3.1 W 11 17 6 9 1026.1 1026.5 0.0
03/01:30pm 9.1 3.6 0.6 55 3.5 WNW 19 26 10 14 1026.6 1027.0 0.0
03/01:00pm 8.6 4.2 0.6 57 3.2 WNW 13 19 7 10 1026.7 1027.1 0.0

Latest Capital City Observations: Canberra | Sydney | Melbourne | Brisbane | Adelaide | Perth | Hobart | Darwin

Other Formats:

Comma delimited format used in spreadsheet applications
http://www.bom.gov.au/fwo/IDV60901/IDV60901.94863.axf

JavaScript Object Notation format (JSON) in row-major order
http://www.bom.gov.au/fwo/IDV60901/IDV60901.94863.json